createdAt,value
2022-10-13T00:01:10.764Z,7.30
2022-10-13T00:03:39.712Z,10.63
2022-10-13T00:06:10.472Z,7.38
2022-10-13T00:08:39.015Z,7.50
2022-10-13T00:11:11.735Z,7.25
2022-10-13T00:13:39.504Z,11.15
2022-10-13T00:16:08.586Z,4.32
2022-10-13T00:18:36.308Z,11.38
2022-10-13T00:21:09.877Z,11.35
2022-10-13T00:23:37.968Z,10.55
2022-10-13T00:26:07.736Z,9.20
2022-10-13T00:28:35.907Z,4.63
2022-10-13T00:31:03.591Z,8.82
2022-10-13T00:33:31.225Z,7.85
2022-10-13T00:35:59.385Z,7.22
2022-10-13T00:38:28.408Z,9.07
2022-10-13T00:40:57.261Z,6.07
2022-10-13T00:43:27.447Z,8.90
2022-10-13T00:45:55.833Z,6.28
2022-10-13T00:48:26.503Z,9.70
2022-10-13T00:50:55.012Z,7.25
2022-10-13T00:53:25.290Z,7.90
2022-10-13T00:55:55.538Z,5.95
2022-10-13T00:58:26.396Z,7.25
2022-10-13T01:00:54.601Z,7.47
2022-10-13T01:03:23.115Z,11.05
2022-10-13T01:05:52.354Z,7.47
2022-10-13T01:08:21.681Z,7.32
2022-10-13T01:10:59.256Z,11.10
2022-10-13T01:13:35.794Z,6.75
2022-10-13T01:16:14.007Z,11.18
2022-10-13T01:18:51.067Z,8.88
2022-10-13T01:21:29.294Z,7.30
2022-10-13T01:24:15.465Z,10.07
2022-10-13T01:27:02.340Z,5.18
2022-10-13T01:29:59.152Z,7.90
2022-10-13T01:32:32.570Z,9.32
2022-10-13T01:35:08.757Z,8.70
2022-10-13T01:37:45.006Z,8.98
2022-10-13T01:40:19.492Z,7.47
2022-10-13T01:42:54.442Z,5.78
2022-10-13T01:45:28.040Z,9.20
2022-10-13T01:47:57.030Z,7.50
2022-10-13T01:50:24.648Z,10.02
2022-10-13T01:52:53.847Z,8.20
2022-10-13T01:55:21.541Z,8.73
2022-10-13T01:57:49.297Z,6.00
2022-10-13T02:00:19.428Z,7.75
2022-10-13T02:02:58.233Z,10.25
2022-10-13T02:05:35.476Z,6.78
2022-10-13T02:08:09.525Z,8.77
2022-10-13T02:10:47.066Z,7.93
2022-10-13T02:13:17.878Z,10.70
2022-10-13T02:15:50.073Z,9.75
2022-10-13T02:18:23.390Z,7.30
2022-10-13T02:20:52.060Z,7.57
2022-10-13T02:23:20.228Z,9.15
2022-10-13T02:25:49.892Z,6.55
2022-10-13T02:28:18.831Z,8.25
2022-10-13T02:30:47.373Z,8.70
2022-10-13T02:33:15.485Z,9.07
2022-10-13T02:35:44.754Z,8.38
2022-10-13T02:38:12.890Z,10.32
2022-10-13T02:40:40.563Z,7.20
2022-10-13T02:43:08.522Z,6.30
2022-10-13T02:45:36.058Z,8.90
2022-10-13T02:48:03.692Z,8.40
2022-10-13T02:50:31.874Z,6.43
2022-10-13T02:53:00.848Z,8.40
2022-10-13T02:55:28.535Z,6.30
2022-10-13T02:57:59.056Z,8.10
2022-10-13T03:00:27.019Z,8.60
2022-10-13T03:02:55.033Z,9.18
2022-10-13T03:05:22.659Z,5.88
2022-10-13T03:07:50.702Z,8.75
2022-10-13T03:10:19.721Z,12.82
2022-10-13T03:12:48.354Z,8.05
2022-10-13T03:15:16.309Z,7.90
2022-10-13T03:17:44.039Z,8.88
2022-10-13T03:20:11.710Z,9.48
2022-10-13T03:22:39.338Z,7.68
2022-10-13T03:25:07.671Z,8.68
2022-10-13T03:27:36.637Z,9.13
2022-10-13T03:30:04.708Z,6.60
2022-10-13T03:32:33.589Z,12.02
2022-10-13T03:35:01.128Z,8.27
2022-10-13T03:37:30.182Z,9.88
2022-10-13T03:39:57.778Z,5.82
2022-10-13T03:42:25.353Z,8.02
2022-10-13T03:44:56.461Z,9.98
2022-10-13T03:47:24.415Z,7.25
2022-10-13T03:49:55.102Z,11.38
2022-10-13T03:52:23.168Z,6.82
2022-10-13T03:54:51.019Z,7.47
2022-10-13T03:57:18.629Z,7.40
2022-10-13T03:59:46.170Z,8.60
2022-10-13T04:02:15.042Z,13.68
2022-10-13T04:04:42.575Z,12.20
2022-10-13T04:07:10.303Z,9.63
2022-10-13T04:09:37.889Z,6.60
2022-10-13T04:12:06.547Z,10.30
2022-10-13T04:14:34.187Z,10.15
2022-10-13T04:17:08.841Z,7.55
2022-10-13T04:19:37.757Z,6.43
2022-10-13T04:22:06.281Z,11.38
2022-10-13T04:24:34.243Z,5.90
2022-10-13T04:27:01.765Z,10.00
2022-10-13T04:29:29.427Z,10.73
2022-10-13T04:31:56.952Z,9.50
2022-10-13T04:34:24.581Z,7.50
2022-10-13T04:36:53.476Z,15.10
2022-10-13T04:39:21.070Z,11.80
2022-10-13T04:41:51.023Z,9.23
2022-10-13T04:44:18.617Z,10.02
2022-10-13T04:46:46.143Z,7.78
2022-10-13T04:49:15.228Z,10.13
2022-10-13T04:51:42.938Z,8.45
2022-10-13T04:54:11.836Z,8.25
2022-10-13T04:56:39.582Z,8.98
2022-10-13T04:59:07.148Z,9.32
2022-10-13T05:01:35.870Z,10.82
2022-10-13T05:04:07.149Z,11.15
2022-10-13T05:06:53.283Z,12.02
2022-10-13T05:09:22.911Z,10.65
2022-10-13T05:11:50.512Z,9.48
2022-10-13T05:14:18.176Z,8.80
2022-10-13T05:16:45.856Z,8.52
2022-10-13T05:19:16.178Z,9.43
2022-10-13T05:21:43.871Z,11.52
2022-10-13T05:24:13.504Z,14.38
2022-10-13T05:26:43.082Z,13.45
2022-10-13T05:29:10.644Z,9.15
2022-10-13T05:31:38.631Z,9.25
2022-10-13T05:34:06.268Z,9.02
2022-10-13T05:36:35.507Z,9.90
2022-10-13T05:39:05.877Z,9.00
2022-10-13T05:41:34.102Z,11.25
2022-10-13T05:44:09.200Z,7.43
2022-10-13T05:46:42.946Z,7.78
2022-10-13T05:49:10.883Z,8.43
2022-10-13T05:51:42.350Z,6.80
2022-10-13T05:54:13.572Z,8.50
2022-10-13T05:56:45.953Z,10.95
2022-10-13T05:59:19.893Z,9.10
2022-10-13T06:01:50.205Z,10.45
2022-10-13T06:04:22.877Z,8.35
2022-10-13T06:06:50.874Z,10.13
2022-10-13T06:09:18.839Z,8.75
2022-10-13T06:11:46.466Z,8.25
2022-10-13T06:14:15.497Z,13.63
2022-10-13T06:16:43.222Z,12.90
2022-10-13T06:19:10.990Z,10.02
2022-10-13T06:21:38.550Z,8.75
2022-10-13T06:24:06.674Z,11.43
2022-10-13T06:26:34.360Z,10.85
2022-10-13T06:29:02.281Z,11.07
2022-10-13T06:31:31.300Z,17.45
2022-10-13T06:33:59.629Z,9.20
2022-10-13T06:36:27.689Z,10.90
2022-10-13T06:38:55.304Z,9.95
2022-10-13T06:41:23.079Z,11.73
2022-10-13T06:43:50.850Z,9.73
2022-10-13T06:46:18.486Z,11.48
2022-10-13T06:48:50.181Z,10.13
2022-10-13T06:51:17.994Z,14.02
2022-10-13T06:53:46.679Z,11.98
2022-10-13T06:56:14.730Z,10.32
2022-10-13T06:58:42.611Z,12.57
2022-10-13T07:01:13.674Z,8.15
2022-10-13T07:03:41.500Z,10.90
2022-10-13T07:06:10.526Z,19.85
2022-10-13T07:08:38.077Z,14.27
2022-10-13T07:11:15.377Z,13.20
2022-10-13T07:13:46.449Z,12.20
2022-10-13T07:16:16.268Z,12.88
2022-10-13T07:18:43.958Z,9.48
2022-10-13T07:21:12.887Z,13.15
2022-10-13T07:23:40.870Z,10.68
2022-10-13T07:26:09.448Z,14.68
2022-10-13T07:28:37.138Z,11.27
2022-10-13T07:31:10.898Z,9.93
2022-10-13T07:33:39.287Z,12.75
2022-10-13T07:36:07.581Z,9.07
2022-10-13T07:38:36.569Z,10.98
2022-10-13T07:41:06.079Z,9.48
2022-10-13T07:43:33.692Z,12.95
2022-10-13T07:46:07.043Z,12.15
2022-10-13T07:48:35.509Z,12.50
2022-10-13T07:51:05.806Z,13.73
2022-10-13T07:53:35.201Z,12.05
2022-10-13T07:56:06.329Z,12.55
2022-10-13T07:58:34.506Z,10.70
2022-10-13T08:01:03.198Z,14.27
2022-10-13T08:03:31.832Z,11.68
2022-10-13T08:06:00.159Z,15.25
2022-10-13T08:08:28.194Z,13.40
2022-10-13T08:10:56.193Z,14.82
2022-10-13T08:13:25.659Z,13.73
2022-10-13T08:15:53.500Z,10.10
2022-10-13T08:18:21.138Z,13.73
2022-10-13T08:20:48.789Z,13.13
2022-10-13T08:23:18.929Z,16.40
2022-10-13T08:25:51.298Z,13.48
2022-10-13T08:28:21.266Z,14.30
2022-10-13T08:30:51.835Z,12.05
2022-10-13T08:33:19.791Z,14.68
2022-10-13T08:35:47.856Z,12.38
2022-10-13T08:38:15.773Z,15.27
2022-10-13T08:40:48.087Z,13.52
2022-10-13T08:43:18.553Z,14.70
2022-10-13T08:45:46.832Z,14.00
2022-10-13T08:48:19.740Z,14.73
2022-10-13T08:50:51.444Z,13.95
2022-10-13T08:53:26.524Z,20.70
2022-10-13T08:55:58.522Z,13.48
2022-10-13T08:58:29.085Z,13.15
2022-10-13T09:01:06.039Z,17.25
2022-10-13T09:03:44.973Z,16.30
2022-10-13T09:06:16.152Z,17.10
2022-10-13T09:08:49.877Z,14.85
2022-10-13T09:11:17.890Z,12.23
2022-10-13T09:13:45.535Z,16.55
2022-10-13T09:16:13.205Z,17.45
2022-10-13T09:18:42.109Z,15.07
2022-10-13T09:21:20.266Z,17.08
2022-10-13T09:23:50.997Z,14.63
2022-10-13T09:26:22.375Z,15.27
2022-10-13T09:28:51.377Z,18.30
2022-10-13T09:31:24.414Z,17.20
2022-10-13T09:34:00.836Z,13.40
2022-10-13T09:36:29.441Z,13.73
2022-10-13T09:39:09.345Z,18.00
2022-10-13T09:41:38.783Z,18.25
2022-10-13T09:44:12.933Z,22.17
2022-10-13T09:46:48.493Z,18.02
2022-10-13T09:49:37.684Z,18.63
2022-10-13T09:52:17.414Z,19.13
2022-10-13T09:54:48.378Z,17.60
2022-10-13T09:57:23.470Z,15.18
2022-10-13T09:59:52.871Z,19.77
2022-10-13T10:02:29.447Z,18.17
2022-10-13T10:05:04.044Z,15.27
2022-10-13T10:07:33.805Z,13.63
2022-10-13T10:10:05.864Z,13.23
2022-10-13T10:12:38.202Z,17.40
2022-10-13T10:15:17.973Z,23.95
2022-10-13T10:17:53.091Z,15.57
2022-10-13T10:20:49.985Z,18.63
2022-10-13T10:23:21.668Z,17.02
2022-10-13T10:25:52.341Z,16.70
2022-10-13T10:28:43.013Z,16.58
2022-10-13T10:31:21.939Z,14.75
2022-10-13T10:34:00.127Z,14.15
2022-10-13T10:36:41.444Z,16.15
2022-10-13T10:39:18.116Z,22.10
2022-10-13T10:41:52.026Z,17.33
2022-10-13T10:44:24.764Z,15.55
2022-10-13T10:46:55.708Z,19.50
2022-10-13T10:49:29.601Z,15.40
2022-10-13T10:51:59.572Z,16.40
2022-10-13T10:54:34.999Z,12.65
2022-10-13T10:57:10.684Z,16.08
2022-10-13T10:59:50.639Z,14.18
2022-10-13T11:02:35.735Z,18.08
2022-10-13T11:05:06.304Z,13.25
2022-10-13T11:07:58.519Z,16.83
2022-10-13T11:10:27.203Z,17.35
2022-10-13T11:13:22.272Z,12.90
2022-10-13T11:15:50.452Z,15.75
2022-10-13T11:19:05.659Z,17.58
2022-10-13T11:22:07.070Z,14.27
2022-10-13T11:24:57.250Z,13.35
2022-10-13T11:27:39.781Z,12.90
2022-10-13T11:30:47.229Z,15.30
2022-10-13T11:33:35.579Z,13.10
2022-10-13T11:36:39.348Z,13.40
2022-10-13T11:39:34.615Z,14.38
2022-10-13T11:42:12.436Z,13.23
2022-10-13T11:44:54.105Z,15.50
2022-10-13T11:47:45.142Z,12.98
2022-10-13T11:50:22.215Z,14.75
2022-10-13T11:53:15.071Z,14.07
2022-10-13T11:55:50.764Z,13.93
2022-10-13T11:58:21.317Z,14.60
2022-10-13T12:00:54.858Z,14.13
2022-10-13T12:03:27.540Z,12.35
2022-10-13T12:05:58.280Z,13.05
2022-10-13T12:08:28.611Z,11.55
2022-10-13T12:11:00.016Z,13.60
2022-10-13T12:13:29.768Z,14.80
2022-10-13T12:16:00.676Z,11.68
2022-10-13T12:18:33.900Z,14.40
2022-10-13T12:21:04.477Z,16.10
2022-10-13T12:23:33.532Z,14.48
2022-10-13T12:26:01.757Z,14.63
2022-10-13T12:28:31.723Z,16.02
2022-10-13T12:31:00.940Z,15.50
2022-10-13T12:33:32.864Z,12.48
2022-10-13T12:36:14.975Z,19.13
2022-10-13T12:38:47.802Z,11.68
2022-10-13T12:41:20.683Z,14.38
2022-10-13T12:43:48.684Z,15.88
2022-10-13T12:46:38.547Z,15.35
2022-10-13T12:49:08.400Z,16.17
2022-10-13T12:51:37.886Z,17.85
2022-10-13T12:54:10.393Z,15.85
2022-10-13T12:56:38.036Z,19.20
2022-10-13T12:59:05.787Z,16.20
2022-10-13T13:01:34.748Z,17.80
2022-10-13T13:04:16.046Z,15.20
2022-10-13T13:06:55.691Z,15.43
2022-10-13T13:09:26.869Z,12.80
2022-10-13T13:12:22.197Z,14.02
2022-10-13T13:14:54.576Z,15.60
2022-10-13T13:17:52.925Z,14.02
2022-10-13T13:20:27.012Z,13.75
2022-10-13T13:22:56.891Z,17.63
2022-10-13T13:25:25.460Z,16.35
2022-10-13T13:27:53.429Z,19.83
2022-10-13T13:30:23.284Z,15.98
2022-10-13T13:32:50.969Z,16.92
2022-10-13T13:35:18.690Z,13.35
2022-10-13T13:37:49.541Z,12.10
2022-10-13T13:40:21.412Z,15.00
2022-10-13T13:42:49.047Z,15.95
2022-10-13T13:45:18.221Z,16.60
2022-10-13T13:47:45.984Z,12.00
2022-10-13T13:50:18.069Z,14.70
2022-10-13T13:52:54.951Z,17.15
2022-10-13T13:55:24.178Z,20.08
2022-10-13T13:57:51.932Z,15.85
2022-10-13T14:00:20.565Z,15.77
2022-10-13T14:02:53.962Z,14.85
2022-10-13T14:05:21.609Z,14.25
2022-10-13T14:07:49.137Z,15.30
2022-10-13T14:10:16.966Z,14.80
2022-10-13T14:12:45.850Z,13.05
2022-10-13T14:15:13.452Z,18.10
2022-10-13T14:17:40.998Z,16.90
2022-10-13T14:20:09.189Z,13.23
2022-10-13T14:22:38.969Z,16.17
2022-10-13T14:25:08.120Z,14.07
2022-10-13T14:27:36.962Z,12.52
2022-10-13T14:30:07.651Z,12.05
2022-10-13T14:32:35.557Z,13.80
2022-10-13T14:35:03.763Z,15.75
2022-10-13T14:37:33.612Z,16.52
2022-10-13T14:40:02.070Z,11.60
2022-10-13T14:42:29.743Z,12.60
2022-10-13T14:44:57.468Z,12.13
2022-10-13T14:47:27.786Z,18.55
2022-10-13T14:49:55.507Z,12.77
2022-10-13T14:52:23.169Z,11.43
2022-10-13T14:54:50.945Z,10.20
2022-10-13T14:57:19.490Z,11.88
2022-10-13T14:59:47.521Z,16.05
2022-10-13T15:02:15.111Z,14.93
2022-10-13T15:04:53.573Z,16.88
2022-10-13T15:07:21.438Z,13.90
2022-10-13T15:10:04.325Z,14.10
2022-10-13T15:12:33.038Z,11.68
2022-10-13T15:15:00.594Z,10.93
2022-10-13T15:17:28.308Z,12.88
2022-10-13T15:19:57.537Z,13.73
2022-10-13T15:22:25.476Z,14.00
2022-10-13T15:24:53.058Z,11.88
2022-10-13T15:27:20.576Z,11.32
2022-10-13T15:29:48.429Z,11.38
2022-10-13T15:32:18.526Z,13.40
2022-10-13T15:34:50.605Z,14.27
2022-10-13T15:37:19.621Z,19.23
2022-10-13T15:39:47.304Z,12.25
2022-10-13T15:42:14.901Z,19.25
2022-10-13T15:45:09.221Z,18.65
2022-10-13T15:47:30.386Z,18.45
2022-10-13T15:49:58.067Z,11.63
2022-10-13T15:52:30.997Z,16.70
2022-10-13T15:55:02.155Z,19.60
2022-10-13T15:57:31.495Z,16.83
2022-10-13T15:59:59.177Z,20.95
2022-10-13T16:02:26.842Z,17.45
2022-10-13T16:04:54.518Z,15.85
2022-10-13T16:07:22.078Z,16.45
2022-10-13T16:09:51.117Z,16.27
2022-10-13T16:12:19.073Z,14.43
2022-10-13T16:14:46.933Z,16.70
2022-10-13T16:17:14.514Z,17.27
2022-10-13T16:19:42.153Z,17.45
2022-10-13T16:22:09.917Z,22.92
2022-10-13T16:24:37.845Z,23.67
2022-10-13T16:27:08.214Z,19.23
2022-10-13T16:29:35.770Z,18.85
2022-10-13T16:32:03.297Z,16.42
2022-10-13T16:34:30.950Z,16.55
2022-10-13T16:36:59.029Z,22.45
2022-10-13T16:39:28.298Z,19.08
2022-10-13T16:41:55.946Z,19.75
2022-10-13T16:44:26.928Z,21.75
2022-10-13T16:46:56.759Z,13.38
2022-10-13T16:49:24.526Z,17.15
2022-10-13T16:51:52.134Z,25.48
2022-10-13T16:54:19.706Z,17.80
2022-10-13T16:56:47.649Z,17.38
2022-10-13T16:59:15.251Z,16.73
2022-10-13T17:01:45.123Z,19.00
2022-10-13T17:04:12.673Z,23.23
2022-10-13T17:06:40.984Z,22.23
2022-10-13T17:09:09.001Z,15.85
2022-10-13T17:11:37.315Z,16.02
2022-10-13T17:14:06.465Z,23.73
2022-10-13T17:16:35.918Z,22.92
2022-10-13T17:19:04.848Z,24.70
2022-10-13T17:21:37.046Z,21.13
2022-10-13T17:24:06.706Z,21.08
2022-10-13T17:26:34.398Z,23.80
2022-10-13T17:29:02.038Z,24.33
2022-10-13T17:31:29.731Z,26.40
2022-10-13T17:33:57.362Z,30.00
2022-10-13T17:36:28.298Z,22.30
2022-10-13T17:38:57.810Z,25.60
2022-10-13T17:41:25.697Z,27.50
2022-10-13T17:43:53.468Z,21.25
2022-10-13T17:46:39.443Z,21.92
2022-10-13T17:49:08.231Z,23.67
2022-10-13T17:51:37.283Z,23.33
2022-10-13T17:54:05.795Z,21.15
2022-10-13T17:56:33.403Z,19.35
2022-10-13T17:59:01.930Z,26.08
2022-10-13T18:01:31.581Z,27.27
2022-10-13T18:04:00.864Z,21.40
2022-10-13T18:06:32.626Z,26.80
2022-10-13T18:09:07.710Z,27.02
2022-10-13T18:11:36.020Z,23.20
2022-10-13T18:14:03.626Z,25.73
2022-10-13T18:16:31.363Z,29.95
2022-10-13T18:18:59.032Z,30.55
2022-10-13T18:21:27.155Z,26.85
2022-10-13T18:23:56.226Z,28.77
2022-10-13T18:26:26.874Z,25.05
2022-10-13T18:28:55.558Z,32.58
2022-10-13T18:31:27.366Z,29.20
2022-10-13T18:34:02.407Z,35.65
2022-10-13T18:36:32.419Z,33.50
2022-10-13T18:39:03.714Z,38.90
2022-10-13T18:41:36.108Z,37.70
2022-10-13T18:44:04.437Z,35.08
2022-10-13T18:46:32.824Z,40.05
2022-10-13T18:49:00.410Z,38.80
2022-10-13T18:51:33.426Z,40.13
2022-10-13T18:54:03.488Z,31.52
2022-10-13T18:56:34.084Z,36.25
2022-10-13T18:59:02.844Z,30.73
2022-10-13T19:01:32.353Z,35.55
2022-10-13T19:04:00.171Z,33.08
2022-10-13T19:06:31.983Z,30.73
2022-10-13T19:09:01.499Z,30.15
2022-10-13T19:11:30.702Z,32.80
2022-10-13T19:14:00.755Z,34.60
2022-10-13T19:16:30.503Z,33.67
2022-10-13T19:18:59.907Z,31.38
2022-10-13T19:21:27.974Z,36.30
2022-10-13T19:23:55.658Z,30.13
2022-10-13T19:26:25.688Z,39.00
2022-10-13T19:28:54.984Z,37.28
2022-10-13T19:31:26.613Z,34.20
2022-10-13T19:33:55.518Z,32.83
2022-10-13T19:36:26.522Z,29.15
2022-10-13T19:38:56.302Z,35.55
2022-10-13T19:41:24.101Z,30.17
2022-10-13T19:43:52.007Z,33.10
2022-10-13T19:46:20.294Z,30.83
2022-10-13T19:48:49.290Z,29.20
2022-10-13T19:51:17.637Z,36.35
2022-10-13T19:53:45.710Z,37.95
2022-10-13T19:56:22.186Z,28.70
2022-10-13T19:58:49.870Z,29.15
2022-10-13T20:01:19.100Z,36.72
2022-10-13T20:03:46.990Z,26.85
2022-10-13T20:06:16.731Z,33.92
2022-10-13T20:08:44.931Z,30.60
2022-10-13T20:11:19.321Z,27.20
2022-10-13T20:13:49.966Z,29.55
2022-10-13T20:16:22.550Z,25.98
2022-10-13T20:18:53.167Z,27.38
2022-10-13T20:21:22.656Z,28.52
2022-10-13T20:23:51.155Z,29.60
2022-10-13T20:26:19.340Z,28.10
2022-10-13T20:28:48.291Z,32.33
2022-10-13T20:31:17.813Z,24.40
2022-10-13T20:33:46.754Z,33.17
2022-10-13T20:36:16.576Z,28.27
2022-10-13T20:38:46.676Z,27.40
2022-10-13T20:41:17.595Z,28.20
2022-10-13T20:43:45.740Z,29.30
2022-10-13T20:46:13.541Z,32.85
2022-10-13T20:49:09.236Z,27.63
2022-10-13T20:51:30.516Z,35.00
2022-10-13T20:53:59.473Z,26.88
2022-10-13T20:56:28.034Z,24.05
2022-10-13T20:58:55.662Z,32.25
2022-10-13T21:01:23.972Z,32.60
2022-10-13T21:03:55.361Z,28.95
2022-10-13T21:06:24.715Z,30.55
2022-10-13T21:08:53.022Z,28.77
2022-10-13T21:11:23.541Z,27.20
2022-10-13T21:13:52.260Z,30.67
2022-10-13T21:16:22.530Z,23.23
2022-10-13T21:18:54.532Z,27.40
2022-10-13T21:21:24.367Z,30.35
2022-10-13T21:23:52.999Z,27.08
2022-10-13T21:26:24.167Z,25.73
2022-10-13T21:28:53.484Z,28.15
2022-10-13T21:31:22.956Z,29.52
2022-10-13T21:33:52.648Z,28.70
2022-10-13T21:36:23.237Z,24.90
2022-10-13T21:38:53.336Z,29.73
2022-10-13T21:41:23.277Z,28.67
2022-10-13T21:43:52.984Z,26.90
2022-10-13T21:46:23.806Z,27.35
2022-10-13T21:48:57.293Z,26.20
2022-10-13T21:51:29.067Z,23.55
2022-10-13T21:53:58.433Z,31.55
2022-10-13T21:56:28.727Z,26.83
2022-10-13T21:58:56.901Z,23.45
2022-10-13T22:01:25.063Z,24.10
2022-10-13T22:03:56.103Z,29.70
2022-10-13T22:06:27.069Z,25.20
2022-10-13T22:08:56.450Z,27.00
2022-10-13T22:11:27.561Z,23.83
2022-10-13T22:13:56.746Z,25.65
2022-10-13T22:16:27.588Z,28.73
2022-10-13T22:18:56.556Z,24.65
2022-10-13T22:21:26.739Z,21.90
2022-10-13T22:23:58.236Z,27.38
2022-10-13T22:26:28.353Z,26.92
2022-10-13T22:28:57.545Z,26.77
2022-10-13T22:31:25.268Z,29.95
2022-10-13T22:33:53.769Z,23.63
2022-10-13T22:36:23.090Z,27.17
2022-10-13T22:38:52.223Z,26.13
2022-10-13T22:41:20.890Z,29.15
2022-10-13T22:43:52.200Z,30.58
2022-10-13T22:46:22.693Z,24.35
2022-10-13T22:48:50.400Z,26.13
2022-10-13T22:51:20.523Z,25.85
2022-10-13T22:53:48.903Z,27.75
2022-10-13T22:56:19.969Z,26.45
2022-10-13T22:58:51.882Z,25.05
2022-10-13T23:01:20.971Z,29.10
2022-10-13T23:03:49.243Z,29.77
2022-10-13T23:06:18.714Z,23.98
2022-10-13T23:08:46.583Z,29.88
2022-10-13T23:11:14.645Z,24.85
2022-10-13T23:13:42.356Z,21.52
2022-10-13T23:16:14.738Z,34.40
2022-10-13T23:18:45.629Z,27.23
2022-10-13T23:21:27.329Z,21.02
2022-10-13T23:23:55.920Z,26.50
2022-10-13T23:26:24.012Z,31.60
2022-10-13T23:28:52.198Z,28.95
2022-10-13T23:31:21.311Z,25.90
2022-10-13T23:33:49.146Z,32.88
2022-10-13T23:36:18.347Z,28.05
2022-10-13T23:38:48.885Z,28.65
2022-10-13T23:41:17.445Z,29.95
2022-10-13T23:43:45.216Z,32.25
2022-10-13T23:46:13.052Z,28.67
2022-10-13T23:48:42.255Z,28.08
2022-10-13T23:51:12.037Z,26.10
2022-10-13T23:53:41.749Z,31.10
2022-10-13T23:56:10.874Z,28.48
2022-10-13T23:58:40.380Z,29.73
